Terminal Aerodrome Forecast
Issued by NWS Cleveland, OH

Home | Current Version | Previous Version | Text Only | Print | Product List | Glossary On
Versions: 1 2 3 4 5 6 7 8 9 10 11 12 13 14 15 16 17 18 19 20
750
FTUS41 KCLE 081723
TAFMFD
TAF
KMFD 081723Z 0818/0918 27004KT 1SM -SN BR OVC003
      TEMPO 0818/0821 4SM -SN BR SCT003 OVC012
     FM082100 27004KT P6SM SCT015 OVC035
      TEMPO 0821/0824 5SM -SN BR OVC015
     FM090000 27004KT 5SM -SHSN OVC015
     FM090800 27005KT 3SM -SHSN OVC006
     FM091500 27009KT 5SM -SHSN OVC012=

USA.gov is the U.S. government's official web portal to all federal, state and local government web resources and services.